ADDS METAR Data INFO
IDs: Format: Raw Decoded Include TAF

Data at: 1132 UTC 29 May 2017

KDRT 291053Z AUTO 33005KT 10SM CLR 21/19 A2996 RMK AO2 SLP130 T02110194
KDRT 290953Z AUTO 31005KT 10SM CLR 21/20 A2996 RMK AO2 SLP128 T02110200
KDRT 290853Z AUTO 28006KT 10SM CLR 21/20 A2994 RMK AO2 SLP123 T02110200 56013
KDRT 290753Z AUTO 29005KT 10SM CLR 21/19 A2994 RMK AO2 SLP124 T02110194
KDRT 290653Z AUTO 33003KT 10SM FEW029 FEW038 22/19 A2996 RMK AO2 SLP130 T02170194
KDRT 290553Z AUTO 32005KT 10SM SCT095 23/19 A2998 RMK AO2 SLP136 T02280189 10256 20228 403220228 50025
KDRT 290453Z AUTO 12005KT 10SM FEW050 OVC100 23/19 A3001 RMK AO2 SLP146 T02330194
KDRT 290353Z AUTO 13009KT 10SM CLR 23/20 A2996 RMK AO2 PRESRR SLP128 T02330200
KDRT 290253Z AUTO 07004KT 10SM CLR 24/21 A2990 RMK AO2 PRESRR SLP110 T02390206 51020
KDRT 290153Z AUTO 36008KT 10SM FEW050 BKN060 BKN110 24/20 A2988 RMK AO2 LTG DSNT E PRESRR SLP101 T02440200
KDRT 290053Z AUTO 36009G16KT 10SM FEW120 25/21 A2987 RMK AO2 LTG DSNT E AND SE SLP099 T02500206
KDRT 282353Z AUTO 05008KT 10SM SCT080 24/19 A2984 RMK AO2 LTG DSNT E SLP090 T02440189 10322 20239 56000
KDRT 282329Z AUTO 04008G17KT 10SM CLR 25/17 A2984 RMK AO2 LTG DSNT NE AND E T02500172
KDRT 282320Z AUTO 04009G22KT 2 1/2SM HZ FEW060 25/17 A2985 RMK AO2 LTG DSNT NE AND E T02500172
KDRT 282253Z AUTO 05013G22KT 10SM FEW032 BKN050 OVC060 27/17 A2984 RMK AO2 LTG DSNT NE AND E SLP089 T02670172
KDRT 282153Z AUTO 16008KT 10SM SCT060 31/24 A2983 RMK AO2 LTG DSNT NE AND E SLP083 T03060239
KDRT 282053Z AUTO 16007KT 10SM CLR 31/23 A2984 RMK AO2 LTG DSNT NE SLP088 T03110233 58015
KDRT 281953Z AUTO 16003KT 10SM SCT036 BKN043 BKN060 32/24 A2986 RMK AO2 SLP094 T03170239
KDRT 281853Z AUTO 16006KT 10SM SCT030 BKN038 BKN044 31/23 A2988 RMK AO2 SLP099 T03110233
KDRT 281753Z AUTO 14005KT 10SM BKN032 31/23 A2989 RMK AO2 SLP102 T03060233 10311 20244 51012
KDRT 281653Z AUTO VRB03KT 10SM FEW024 SCT050 29/23 A2989 RMK AO2 SLP103 T02940233
KDRT 281630Z AUTO 09007KT 10SM SCT027 BKN048 29/23 A2987 RMK AO2 T02890233
KDRT 281553Z AUTO 05006KT 10SM OVC022 28/23 A2986 RMK AO2 SLP096 T02780233
KDRT 281510Z AUTO 04007KT 10SM BKN019 27/23 A2988 RMK AO2 T02720228
KDRT 281453Z AUTO 11005KT 10SM FEW017 27/23 A2985 RMK AO2 SLP090 T02720228 53012
KDRT 281353Z AUTO 09007KT 10SM CLR 26/23 A2982 RMK AO2 SLP081 T02610228
KDRT 281253Z AUTO 09009KT 10SM CLR 25/23 A2982 RMK AO2 SLP080 T02500228
KDRT 281153Z AUTO 08007KT 9SM CLR 24/23 A2981 RMK AO2 SLP078 T02440228 10272 20244 53012
KDRT 281053Z AUTO 09008KT 10SM CLR 26/23 A2978 RMK AO2 SLP065 T02560228
KDRT 280953Z AUTO 09009KT 10SM CLR 26/23 A2977 RMK AO2 SLP064 T02560228
KDRT 280853Z AUTO 08009KT 10SM CLR 25/22 A2978 RMK AO2 SLP065 T02500217 50001
KDRT 280753Z AUTO 07006KT 10SM CLR 25/21 A2979 RMK AO2 SLP070 T02500211
KDRT 280653Z AUTO 05005KT 10SM CLR 26/21 A2978 RMK AO2 SLP067 T02610211
KDRT 280553Z AUTO 00000KT 10SM CLR 27/21 A2977 RMK AO2 SLP065 60000 T02670211 10328 20261 403440250 58002
KDRT 280453Z AUTO 16007KT 10SM CLR 27/22 A2978 RMK AO2 SLP068 T02720217
KDRT 280353Z AUTO 00000KT 8SM CLR 27/23 A2978 RMK AO2 SLP069 T02720233
KDRT 280253Z AUTO 07005KT 7SM CLR 28/26 A2978 RMK AO2 RAB00E15 SLP067 P0000 60000 T02830256 51013
KDRT 280153Z AUTO 29007KT 5SM HZ CLR 31/24 A2977 RMK AO2 SLP063 T03060239
KDRT 280053Z AUTO 16006KT 8SM CLR 31/24 A2977 RMK AO2 PRESRR SLP063 T03060239
KDRT 272353Z AUTO 07009KT 8SM CLR 32/23 A2974 RMK AO2 PRESFR SLP052 T03220233 10344 20289 58019


Page loaded:  11:32 UTC  |   04:32 AM Pacific  |   05:32 AM Mountain  |   06:32 AM Central  |   07:32 AM Eastern

 

ADVISORIES

FORECASTS

FORECASTS

OBSERVATIONS

USER TOOLS

ABOUT US